Time;durP1;ratioP1;P1;durP2;ratioP2;P2;SDS_P1;SDS_P2;PMS_P1;PMS_P2;Temp;Humidity;BMP_temperature;BMP_pressure;BME280_temperature;BME280_humidity;BME280_pressure;Samples;Min_cycle;Max_cycle;Signal;HPM_P1;HPM_P2
2022/05/17 00:00:21;;;;;;;2.40;1.50;;;;;;;24.60;48.09;99507.25;5092537;28;20555;-63
2022/05/17 00:02:46;;;;;;;3.72;2.58;;;;;;;24.59;48.25;99506.44;5092180;28;20040;-59
2022/05/17 00:05:13;;;;;;;2.42;1.80;;;;;;;24.59;48.23;99509.25;5092213;28;20051;-59
2022/05/17 00:07:38;;;;;;;3.42;2.25;;;;;;;24.59;48.04;99505.66;5092243;28;20174;-59
2022/05/17 00:10:05;;;;;;;2.90;2.17;;;;;;;24.56;48.03;99507.22;5092132;28;20111;-59
2022/05/17 00:12:30;;;;;;;3.15;2.10;;;;;;;24.57;48.16;99497.63;5092164;28;20048;-59
2022/05/17 00:14:56;;;;;;;3.00;2.10;;;;;;;24.58;48.19;99502.06;5092329;28;20043;-58
2022/05/17 00:17:21;;;;;;;3.30;2.33;;;;;;;24.59;48.07;99519.63;5092238;28;20044;-63
2022/05/17 00:19:47;;;;;;;2.92;2.20;;;;;;;24.56;48.10;99498.03;5092233;28;20564;-63
2022/05/17 00:22:12;;;;;;;3.67;2.45;;;;;;;24.58;48.22;99501.25;5092184;28;20671;-63
2022/05/17 00:24:38;;;;;;;3.60;2.60;;;;;;;24.57;48.33;99514.41;5074022;28;20039;-63
2022/05/17 00:27:04;;;;;;;4.43;2.80;;;;;;;24.57;48.31;99508.81;5091986;28;20059;-63
2022/05/17 00:29:30;;;;;;;3.45;2.20;;;;;;;24.57;48.29;99517.19;5091770;28;20381;-63
2022/05/17 00:31:55;;;;;;;3.45;2.45;;;;;;;24.57;48.34;99514.41;5091460;28;20522;-63
2022/05/17 00:34:22;;;;;;;3.33;2.30;;;;;;;24.56;48.11;99510.00;5092063;28;20392;-63
2022/05/17 00:36:47;;;;;;;3.50;2.42;;;;;;;24.56;48.22;99518.41;5091813;28;20407;-63
2022/05/17 00:39:13;;;;;;;3.33;2.55;;;;;;;24.57;48.17;99513.63;5091873;28;20515;-63
2022/05/17 00:41:39;;;;;;;3.58;2.30;;;;;;;24.55;48.30;99511.22;5091695;28;20467;-63
2022/05/17 00:47:22;;;;;;;2.95;2.03;;;;;;;24.53;48.28;99507.22;5091795;28;20069;-63
2022/05/17 00:49:50;;;;;;;3.10;2.15;;;;;;;24.54;48.20;99506.81;5091666;28;20043;-63
2022/05/17 00:52:21;;;;;;;3.22;2.30;;;;;;;24.53;48.32;99508.03;5091401;28;20055;-63
2022/05/17 00:54:49;;;;;;;2.63;1.90;;;;;;;24.49;48.01;99504.41;5091595;28;20090;-63
2022/05/17 00:57:25;;;;;;;3.45;2.10;;;;;;;24.50;48.31;99497.63;5091605;28;20071;-63
2022/05/17 00:59:52;;;;;;;4.20;2.03;;;;;;;24.49;47.98;99504.41;5091538;28;20089;-58
2022/05/17 01:02:18;;;;;;;3.20;2.10;;;;;;;24.49;48.42;99504.41;5091536;28;20172;-58
2022/05/17 01:04:44;;;;;;;2.90;1.88;;;;;;;24.50;48.35;99505.22;5091190;28;20056;-58
2022/05/17 01:07:16;;;;;;;3.35;2.10;;;;;;;24.48;48.29;99502.03;5095803;28;20461;-59
2022/05/17 01:09:41;;;;;;;2.53;1.83;;;;;;;24.49;48.29;99496.03;5122367;28;20051;-60
2022/05/17 01:12:07;;;;;;;2.30;1.60;;;;;;;24.50;48.29;99508.00;5122262;28;20143;-58
2022/05/17 01:17:17;;;;;;;3.40;2.00;;;;;;;24.48;48.20;99504.81;5122242;28;20042;-58
2022/05/17 01:19:43;;;;;;;2.60;1.90;;;;;;;24.45;48.22;99509.22;5120800;28;20048;-59
2022/05/17 01:22:09;;;;;;;2.30;1.90;;;;;;;24.47;48.50;99504.03;5121200;28;20091;-59
2022/05/17 01:24:35;;;;;;;2.90;2.00;;;;;;;24.45;48.29;99502.84;5121786;28;20047;-59
2022/05/17 01:27:13;;;;;;;2.38;1.60;;;;;;;24.45;48.30;99506.44;5120806;28;20408;-58
2022/05/17 01:29:44;;;;;;;3.13;2.00;;;;;;;24.46;48.30;99505.22;5119971;28;20054;-58
2022/05/17 01:32:11;;;;;;;2.45;1.70;;;;;;;24.45;48.60;99508.41;5119782;28;20502;-59
2022/05/17 01:34:37;;;;;;;2.75;1.75;;;;;;;24.44;48.55;99513.22;5121157;28;20039;-63
2022/05/17 01:37:04;;;;;;;2.20;1.70;;;;;;;24.46;48.49;99505.22;5120997;28;20085;-63
2022/05/17 01:39:31;;;;;;;2.80;1.95;;;;;;;24.45;48.29;99498.03;5120870;28;20499;-58
2022/05/17 01:41:56;;;;;;;2.40;1.70;;;;;;;24.45;48.49;99503.63;5121057;28;20050;-58
2022/05/17 01:44:23;;;;;;;2.30;1.70;;;;;;;24.45;48.53;99503.63;5121429;28;20047;-59
2022/05/17 01:46:49;;;;;;;3.13;1.90;;;;;;;24.46;48.52;99508.03;5120600;28;20094;-58
2022/05/17 01:49:14;;;;;;;2.30;1.50;;;;;;;24.46;48.37;99508.03;5120980;28;20039;-58
2022/05/17 01:51:39;;;;;;;2.60;1.70;;;;;;;24.46;48.45;99499.63;5121119;28;20126;-59
2022/05/17 01:54:05;;;;;;;2.70;1.63;;;;;;;24.46;48.42;99505.22;5121524;27;20061;-58
2022/05/17 01:56:30;;;;;;;2.42;1.77;;;;;;;24.45;48.69;99502.84;5121465;28;20040;-63
2022/05/17 01:58:56;;;;;;;2.20;1.52;;;;;;;24.46;48.60;99499.63;5121429;28;20039;-63
2022/05/17 02:01:21;;;;;;;2.10;1.50;;;;;;;24.43;48.67;99501.25;5120729;28;20038;-63
2022/05/17 02:03:47;;;;;;;2.63;1.60;;;;;;;24.42;48.65;99499.63;5120387;28;20047;-63
2022/05/17 02:06:12;;;;;;;2.10;1.40;;;;;;;24.43;48.53;99506.00;5121411;28;20056;-63
2022/05/17 02:08:38;;;;;;;2.30;1.70;;;;;;;24.42;48.55;99508.00;5120711;28;20040;-63
2022/05/17 02:11:04;;;;;;;2.38;1.60;;;;;;;24.42;48.59;99505.19;5120615;28;20055;-63
2022/05/17 02:13:29;;;;;;;2.65;1.67;;;;;;;24.42;48.90;99507.19;5120417;28;20108;-63
2022/05/17 02:15:55;;;;;;;2.40;1.55;;;;;;;24.41;48.57;99511.19;5120547;27;20097;-63
2022/05/17 02:18:21;;;;;;;2.38;1.70;;;;;;;24.40;48.84;99512.41;5119914;28;20093;-63
2022/05/17 02:20:46;;;;;;;2.65;1.70;;;;;;;24.40;48.78;99506.81;5120287;28;20092;-63
2022/05/17 02:23:12;;;;;;;1.83;1.40;;;;;;;24.39;48.65;99510.81;5121027;27;20714;-63
2022/05/17 02:25:37;;;;;;;2.53;1.75;;;;;;;24.38;48.65;99510.00;5121143;28;20043;-63
2022/05/17 02:28:03;;;;;;;2.70;1.77;;;;;;;24.37;48.49;99511.22;5121069;28;20039;-63
2022/05/17 02:30:29;;;;;;;2.65;1.75;;;;;;;24.37;48.83;99507.63;5120678;28;20127;-63
2022/05/17 02:32:55;;;;;;;2.75;1.70;;;;;;;24.37;48.72;99513.22;5120080;28;20138;-63
2022/05/17 02:35:20;;;;;;;2.70;1.60;;;;;;;24.36;48.81;99511.56;5117921;28;20047;-64
2022/05/17 02:37:46;;;;;;;3.00;1.80;;;;;;;24.35;48.77;99510.78;5118027;28;20035;-63
2022/05/17 02:40:11;;;;;;;2.03;1.50;;;;;;;24.38;48.45;99506.41;5120968;28;20048;-63
2022/05/17 02:42:37;;;;;;;2.70;1.80;;;;;;;24.35;48.56;99512.78;5119512;28;20110;-63
2022/05/17 02:45:04;;;;;;;2.35;1.58;;;;;;;24.34;48.55;99513.97;5118035;28;20039;-63
2022/05/17 02:47:29;;;;;;;2.47;1.83;;;;;;;24.34;48.53;99505.59;5118863;28;20043;-63
2022/05/17 02:49:55;;;;;;;2.30;1.60;;;;;;;24.34;48.42;99513.97;5120712;28;20043;-63
2022/05/17 02:52:20;;;;;;;2.58;1.83;;;;;;;24.33;48.55;99509.59;5120635;28;20078;-63
2022/05/17 02:54:46;;;;;;;2.00;1.38;;;;;;;24.31;48.59;99507.16;5120378;28;20495;-63
2022/05/17 02:57:11;;;;;;;2.83;1.80;;;;;;;24.32;48.67;99508.75;5118770;28;20052;-63
2022/05/17 02:59:37;;;;;;;2.53;1.80;;;;;;;24.33;48.58;99515.19;5120719;28;20051;-63
2022/05/17 03:02:02;;;;;;;2.30;1.70;;;;;;;24.32;48.63;99516.34;5120449;28;20050;-63
2022/05/17 03:04:28;;;;;;;2.65;1.77;;;;;;;24.30;48.51;99525.13;5119832;27;20131;-63
2022/05/17 03:06:54;;;;;;;2.30;1.65;;;;;;;24.30;48.58;99519.56;5117744;28;20449;-63
2022/05/17 03:09:20;;;;;;;2.58;1.70;;;;;;;24.30;48.65;99513.97;5119930;28;20035;-63
2022/05/17 03:11:45;;;;;;;2.45;1.70;;;;;;;24.30;48.56;99527.94;5118477;28;20484;-63
2022/05/17 03:14:13;;;;;;;2.33;1.70;;;;;;;24.30;48.57;99518.75;5119142;28;20044;-63
2022/05/17 03:16:39;;;;;;;2.42;1.80;;;;;;;24.30;48.39;99527.94;5119103;27;20108;-63
2022/05/17 03:19:06;;;;;;;2.35;1.60;;;;;;;24.30;48.54;99525.13;5120207;27;20047;-63
2022/05/17 03:21:32;;;;;;;2.30;1.60;;;;;;;24.29;48.84;99525.50;5119607;28;20044;-63
2022/05/17 03:23:57;;;;;;;2.78;1.80;;;;;;;24.28;48.76;99523.91;5118659;28;20051;-64
2022/05/17 03:26:23;;;;;;;2.40;1.70;;;;;;;24.28;48.59;99523.91;5118093;28;20169;-63
2022/05/17 03:28:49;;;;;;;3.22;1.70;;;;;;;24.27;48.83;99527.91;5119899;28;20398;-63
2022/05/17 03:31:14;;;;;;;2.30;1.60;;;;;;;24.28;48.64;99524.72;5123924;28;20105;-63
2022/05/17 03:33:40;;;;;;;3.33;1.90;;;;;;;24.28;48.86;99526.72;5121751;28;20043;-63
2022/05/17 03:36:07;;;;;;;2.50;1.77;;;;;;;24.26;48.78;99532.72;5123216;28;20578;-63
2022/05/17 03:38:34;;;;;;;2.65;1.83;;;;;;;24.27;48.99;99534.31;5123051;28;20055;-63
2022/05/17 03:40:59;;;;;;;2.53;1.75;;;;;;;24.26;48.62;99531.91;5122970;28;20100;-63
2022/05/17 03:43:27;;;;;;;2.58;1.80;;;;;;;24.25;48.86;99533.09;5123160;28;20043;-63
2022/05/17 03:45:53;;;;;;;2.53;1.70;;;;;;;24.25;48.79;99531.09;5123481;28;20426;-63
2022/05/17 03:48:18;;;;;;;2.65;1.70;;;;;;;24.25;48.83;99539.50;5122871;28;20050;-63
2022/05/17 03:50:45;;;;;;;2.38;1.80;;;;;;;24.27;48.73;99534.31;5120844;28;20343;-63
2022/05/17 03:53:10;;;;;;;2.30;1.70;;;;;;;24.27;48.58;99527.91;5123042;28;20043;-63
2022/05/17 03:55:36;;;;;;;2.25;1.50;;;;;;;24.25;48.90;99533.91;5122784;28;20098;-63
2022/05/17 03:58:01;;;;;;;1.80;1.30;;;;;;;24.25;48.89;99530.31;5122478;28;20040;-63
2022/05/17 04:00:27;;;;;;;2.67;1.95;;;;;;;24.25;48.84;99522.72;5122661;28;20050;-63
2022/05/17 04:02:52;;;;;;;2.33;1.52;;;;;;;24.23;48.82;99529.91;5123339;28;20134;-63
2022/05/17 04:05:18;;;;;;;2.50;1.73;;;;;;;24.25;48.80;99533.09;5113323;28;20348;-63
2022/05/17 04:07:43;;;;;;;2.67;1.73;;;;;;;24.23;48.83;99536.31;5121275;28;20568;-63
2022/05/17 04:10:11;;;;;;;2.50;1.80;;;;;;;24.22;48.73;99534.72;5122560;27;20489;-63
2022/05/17 04:12:37;;;;;;;2.30;1.60;;;;;;;24.21;48.92;99532.28;5122353;28;20153;-63
2022/05/17 04:15:04;;;;;;;2.00;1.42;;;;;;;24.24;48.75;99537.09;5122426;28;20503;-59
2022/05/17 04:17:30;;;;;;;2.38;1.73;;;;;;;24.23;48.83;99533.50;5121931;27;20043;-58
2022/05/17 04:19:55;;;;;;;2.47;1.65;;;;;;;24.22;48.79;99534.72;5122632;28;20043;-58
2022/05/17 04:22:20;;;;;;;2.45;1.55;;;;;;;24.22;48.74;99534.72;5122327;28;20415;-59
2022/05/17 04:24:46;;;;;;;2.50;1.77;;;;;;;24.21;48.85;99535.88;5120221;28;20376;-58
2022/05/17 04:27:15;;;;;;;4.03;1.92;;;;;;;24.20;49.01;99537.06;5122805;27;20042;-58
2022/05/17 04:29:41;;;;;;;2.60;1.80;;;;;;;24.20;49.01;99537.06;5122121;28;20488;-58
2022/05/17 04:32:07;;;;;;;2.22;1.50;;;;;;;24.20;49.06;99527.91;5121385;28;20133;-58
2022/05/17 04:34:33;;;;;;;2.17;1.58;;;;;;;24.20;48.83;99533.47;5120871;27;20093;-59
2022/05/17 04:36:58;;;;;;;2.90;1.80;;;;;;;24.19;48.89;99529.88;5122696;28;20035;-58
2022/05/17 04:39:24;;;;;;;2.75;1.70;;;;;;;24.21;49.05;99543.47;5121371;27;20240;-63
2022/05/17 04:41:50;;;;;;;2.30;1.65;;;;;;;24.19;48.84;99537.47;5122129;28;20343;-63
2022/05/17 04:44:16;;;;;;;3.00;2.03;;;;;;;24.20;49.05;99534.28;5122417;28;20050;-63
2022/05/17 04:46:41;;;;;;;2.53;1.70;;;;;;;24.19;48.91;99538.28;5122716;28;20047;-63
2022/05/17 04:49:07;;;;;;;2.90;1.70;;;;;;;24.19;48.91;99549.47;5122829;28;20036;-63
2022/05/17 04:51:34;;;;;;;2.45;1.58;;;;;;;24.20;48.94;99541.88;5122591;28;20051;-63
2022/05/17 04:54:00;;;;;;;2.72;1.80;;;;;;;24.20;49.29;99545.47;5119903;27;20534;-63
2022/05/17 04:56:26;;;;;;;2.78;1.90;;;;;;;24.21;49.23;99546.25;5121873;28;20044;-63
2022/05/17 04:58:51;;;;;;;2.25;1.77;;;;;;;24.19;49.10;99538.28;5121528;28;20050;-63
2022/05/17 05:01:17;;;;;;;2.65;1.73;;;;;;;24.23;49.20;99557.88;5120351;28;20043;-63
2022/05/17 05:03:42;;;;;;;2.60;1.80;;;;;;;24.22;49.14;99542.25;5122433;28;20457;-63
2022/05/17 05:06:08;;;;;;;2.50;1.73;;;;;;;24.24;49.19;99548.28;5122434;27;20039;-63
2022/05/17 05:08:33;;;;;;;2.00;1.40;;;;;;;24.24;49.30;99543.50;5122195;28;20452;-63
2022/05/17 05:10:59;;;;;;;2.30;1.60;;;;;;;24.24;49.07;99545.50;5121716;28;20059;-63
2022/05/17 05:13:25;;;;;;;2.42;1.77;;;;;;;24.23;49.17;99547.47;5121030;28;20495;-63
2022/05/17 05:15:51;;;;;;;2.50;1.88;;;;;;;24.25;49.18;99553.47;5119865;28;20109;-63
2022/05/17 05:18:19;;;;;;;2.05;1.58;;;;;;;24.23;49.14;99546.69;5121332;28;20047;-63
2022/05/17 05:20:44;;;;;;;2.72;1.80;;;;;;;24.23;49.30;99547.47;5121298;28;20112;-63
2022/05/17 05:23:11;;;;;;;2.33;1.50;;;;;;;24.21;49.44;99546.25;5121085;28;20439;-63
2022/05/17 05:25:37;;;;;;;2.42;1.70;;;;;;;24.24;49.12;99559.47;5121815;27;20077;-63
2022/05/17 05:28:05;;;;;;;4.25;1.88;;;;;;;24.23;49.50;99552.28;5119344;28;20071;-65
2022/05/17 05:30:30;;;;;;;3.05;1.70;;;;;;;24.21;49.55;99555.44;5121280;28;20071;-63
2022/05/17 05:32:57;;;;;;;2.33;1.60;;;;;;;24.22;49.60;99542.25;5120923;28;20090;-62
2022/05/17 05:35:24;;;;;;;2.80;1.60;;;;;;;24.24;49.67;99554.66;5119576;27;20184;-62
2022/05/17 05:37:50;;;;;;;2.50;1.80;;;;;;;24.25;49.56;99564.66;5121889;28;20130;-62
2022/05/17 05:40:15;;;;;;;2.40;1.65;;;;;;;24.25;49.58;99561.06;5120676;28;20130;-62
2022/05/17 05:42:41;;;;;;;2.90;1.80;;;;;;;24.22;49.60;99561.84;5120828;28;20047;-62
2022/05/17 05:45:09;;;;;;;3.15;1.80;;;;;;;24.25;49.37;99561.84;5119446;28;20059;-62
2022/05/17 05:47:34;;;;;;;2.40;1.58;;;;;;;24.27;49.43;99569.84;5119554;27;20044;-62
2022/05/17 05:50:00;;;;;;;3.22;1.73;;;;;;;24.26;49.38;99565.44;5119478;28;20050;-59
2022/05/17 05:52:25;;;;;;;3.00;1.95;;;;;;;24.25;49.29;99552.66;5120738;27;20086;-59
2022/05/17 05:54:51;;;;;;;8.23;2.00;;;;;;;24.27;49.31;99558.66;5121027;28;20415;-62
2022/05/17 05:57:16;;;;;;;2.67;1.70;;;;;;;24.28;49.20;99569.44;5120893;28;20047;-62
2022/05/17 05:59:42;;;;;;;2.70;1.80;;;;;;;24.29;49.18;99564.66;5121058;27;20494;-62
2022/05/17 06:02:09;;;;;;;2.28;1.70;;;;;;;24.33;49.03;99563.50;5121232;28;20044;-62
2022/05/17 06:04:35;;;;;;;2.60;1.77;;;;;;;24.38;49.19;99557.53;5120608;28;20048;-62
2022/05/17 06:07:01;;;;;;;3.08;1.80;;;;;;;24.43;48.95;99559.13;5120647;28;20039;-62
2022/05/17 06:09:27;;;;;;;2.17;1.55;;;;;;;24.46;49.00;99566.75;5120743;28;20039;-62
2022/05/17 06:11:52;;;;;;;2.38;1.50;;;;;;;24.45;48.93;99559.56;5120296;27;20130;-62
2022/05/17 06:14:20;;;;;;;2.13;1.60;;;;;;;24.43;48.99;99562.75;5120000;28;20404;-62
2022/05/17 06:16:46;;;;;;;2.83;1.70;;;;;;;24.44;49.05;99557.94;5121049;28;20040;-62
2022/05/17 06:19:12;;;;;;;2.50;1.80;;;;;;;24.47;49.15;99565.53;5108724;28;20525;-62
2022/05/17 06:21:38;;;;;;;2.45;1.70;;;;;;;24.47;49.13;99561.94;5121042;28;20043;-62
2022/05/17 06:24:04;;;;;;;2.10;1.50;;;;;;;24.50;49.03;99563.94;5121154;28;20040;-62
2022/05/17 06:26:29;;;;;;;2.45;1.67;;;;;;;24.52;49.00;99570.75;5120719;28;20043;-63
2022/05/17 06:28:54;;;;;;;2.97;2.00;;;;;;;24.49;48.92;99565.13;5118088;28;20048;-62
2022/05/17 06:31:20;;;;;;;2.30;1.65;;;;;;;24.52;49.00;99570.75;5120191;28;20048;-62
2022/05/17 06:33:45;;;;;;;2.67;1.80;;;;;;;24.50;49.09;99570.31;5120217;28;20043;-62
2022/05/17 06:36:10;;;;;;;2.15;1.55;;;;;;;24.51;49.15;99569.16;5118769;28;20043;-62
2022/05/17 06:38:36;;;;;;;2.70;1.83;;;;;;;24.52;49.25;99562.38;5120707;28;20089;-62
2022/05/17 06:41:03;;;;;;;2.53;1.70;;;;;;;24.53;48.98;99571.56;5120658;28;20044;-62
2022/05/17 06:43:29;;;;;;;2.92;1.92;;;;;;;24.55;49.00;99567.16;5118746;27;20047;-62
2022/05/17 06:45:55;;;;;;;2.53;1.60;;;;;;;24.50;49.35;99570.31;5119801;27;20043;-62
2022/05/17 06:48:20;;;;;;;3.30;1.98;;;;;;;24.51;49.43;99568.34;5107243;28;20114;-65
2022/05/17 06:50:46;;;;;;;5.13;2.00;;;;;;;24.57;49.47;99564.75;5104997;27;20051;-68
2022/05/17 06:53:11;;;;;;;3.20;2.28;;;;;;;24.59;49.39;99562.38;5097359;27;20879;-69
2022/05/17 06:55:37;;;;;;;8.52;3.03;;;;;;;24.61;49.17;99561.97;5107394;27;20044;-69
2022/05/17 06:58:03;;;;;;;7.10;3.50;;;;;;;24.59;49.03;99553.97;5119161;27;20047;-70
2022/05/17 07:00:29;;;;;;;7.65;3.45;;;;;;;24.60;48.99;99568.78;5117624;27;20469;-67
2022/05/17 07:02:54;;;;;;;9.48;3.17;;;;;;;24.58;49.45;99552.38;5112254;27;20514;-68
2022/05/17 07:05:20;;;;;;;5.13;3.17;;;;;;;24.53;49.60;99555.56;5112501;27;20603;-69
2022/05/17 07:07:46;;;;;;;7.55;3.67;;;;;;;24.59;49.09;99559.56;5120327;27;20040;-69
2022/05/17 07:13:10;;;;;;;5.68;3.00;;;;;;;24.64;49.14;99545.19;5105757;27;20258;-71
2022/05/17 07:15:41;;;;;;;11.23;3.80;;;;;;;24.56;49.62;99556.75;5105249;27;20047;-73
2022/05/17 07:18:08;;;;;;;6.20;2.90;;;;;;;24.62;49.13;99553.19;5101853;27;20044;-71
2022/05/17 07:20:34;;;;;;;6.95;3.22;;;;;;;24.64;49.48;99544.38;5113456;27;20501;-71
2022/05/17 07:22:59;;;;;;;10.43;3.53;;;;;;;24.64;49.39;99550.78;5114958;27;20043;-70
2022/05/17 07:25:25;;;;;;;10.43;3.83;;;;;;;24.57;49.58;99547.97;5107850;27;20408;-71
2022/05/17 07:27:51;;;;;;;8.68;3.70;;;;;;;24.57;49.99;99552.75;5104425;28;20032;-70
2022/05/17 07:30:16;;;;;;;8.45;3.42;;;;;;;24.57;49.87;99549.97;5111326;28;20038;-61
2022/05/17 07:32:42;;;;;;;9.40;3.40;;;;;;;24.62;49.88;99550.38;5115478;28;20051;-60
2022/05/17 07:35:07;;;;;;;11.18;2.70;;;;;;;24.65;49.95;99546.81;5123885;28;20085;-59
2022/05/17 07:37:36;;;;;;;13.40;3.30;;;;;;;24.68;49.59;99539.59;5105673;27;20028;-58
2022/05/17 07:40:02;;;;;;;11.48;3.47;;;;;;;24.79;49.34;99546.03;5121650;27;20062;-58
2022/05/17 07:42:28;;;;;;;10.25;3.03;;;;;;;24.77;49.37;99539.19;5116057;27;20046;-60
2022/05/17 07:44:53;;;;;;;12.35;3.30;;;;;;;24.84;49.39;99534.41;5118041;28;20039;-59
2022/05/17 07:47:19;;;;;;;10.20;3.47;;;;;;;24.88;49.19;99538.03;5117961;28;20043;-67
2022/05/17 07:49:45;;;;;;;8.98;2.75;;;;;;;24.86;48.70;99532.03;5101374;27;20090;-68
2022/05/17 07:52:11;;;;;;;9.23;3.20;;;;;;;24.81;49.15;99531.63;5117148;27;20082;-66
2022/05/17 07:54:37;;;;;;;12.00;3.38;;;;;;;24.83;49.00;99530.00;5111454;28;20046;-65
2022/05/17 07:57:04;;;;;;;6.10;2.50;;;;;;;24.88;48.93;99528.84;5111618;28;20035;-65
2022/05/17 07:59:30;;;;;;;5.40;2.50;;;;;;;24.80;49.13;99521.63;5113011;28;20047;-65
2022/05/17 08:01:55;;;;;;;9.82;3.20;;;;;;;24.81;48.79;99515.63;5104501;28;20677;-70
2022/05/17 08:04:23;;;;;;;12.10;3.50;;;;;;;24.83;48.81;99516.03;5113005;28;20047;-69
2022/05/17 08:06:49;;;;;;;9.68;2.97;;;;;;;24.85;48.36;99519.22;5120739;27;20047;-67
2022/05/17 08:09:14;;;;;;;7.78;2.53;;;;;;;24.86;48.44;99517.22;5118256;28;20040;-67
2022/05/17 08:11:40;;;;;;;8.40;2.50;;;;;;;24.90;47.84;99513.22;5118657;28;20122;-66
2022/05/17 08:14:05;;;;;;;6.63;2.60;;;;;;;24.96;47.44;99500.44;5110313;27;20047;-70
2022/05/17 08:16:31;;;;;;;6.72;2.20;;;;;;;24.96;47.22;99506.03;5127073;27;20043;-68
2022/05/17 08:18:56;;;;;;;8.20;2.88;;;;;;;24.93;47.65;99494.81;5119864;28;20054;-69
2022/05/17 08:21:21;;;;;;;6.80;2.90;;;;;;;24.96;47.33;99496.84;5104285;28;20027;-69
2022/05/17 08:23:47;;;;;;;6.07;2.58;;;;;;;24.94;47.68;99496.44;5119108;28;20042;-70
2022/05/17 08:28:57;;;;;;;8.30;2.80;;;;;;;24.92;47.34;99490.44;5117031;27;20575;-68
2022/05/17 08:31:23;;;;;;;6.55;2.50;;;;;;;24.92;47.19;99485.63;5119660;28;20040;-66
2022/05/17 08:33:49;;;;;;;6.63;2.58;;;;;;;24.98;46.87;99483.25;5125661;28;20054;-66
2022/05/17 08:36:14;;;;;;;10.43;3.00;;;;;;;24.98;47.11;99481.25;5109139;28;20210;-66
2022/05/17 08:38:43;;;;;;;7.82;2.80;;;;;;;25.02;46.84;99481.25;5113380;28;20571;-67
2022/05/17 08:41:36;;;;;;;4.55;2.30;;;;;;;24.98;46.86;99478.44;5114834;27;20051;-66
2022/05/17 08:44:13;;;;;;;5.95;2.35;;;;;;;25.01;46.58;99476.84;5110248;27;20126;-62
2022/05/17 08:47:05;;;;;;;7.45;2.65;;;;;;;25.03;46.56;99474.44;5117160;27;20059;-62
2022/05/17 08:49:55;;;;;;;7.07;2.78;;;;;;;25.06;46.11;99473.66;5115166;27;20162;-62
2022/05/17 08:52:23;;;;;;;9.30;2.88;;;;;;;25.07;46.19;99471.66;5114080;27;20554;-63
2022/05/17 08:55:27;;;;;;;7.10;3.28;;;;;;;25.03;45.91;99470.84;5113880;27;20035;-63
2022/05/17 08:58:01;;;;;;;7.97;3.22;;;;;;;25.03;45.72;99463.25;5111814;27;20047;-63
2022/05/17 09:00:38;;;;;;;3.95;2.38;;;;;;;25.04;45.71;99458.47;5129729;27;20038;-62
2022/05/17 09:03:35;;;;;;;5.07;2.83;;;;;;;25.07;45.46;99454.88;5102067;28;20185;-62
2022/05/17 09:06:14;;;;;;;6.90;2.88;;;;;;;25.11;45.42;99462.06;5120742;28;20039;-63
2022/05/17 09:08:49;;;;;;;4.57;2.30;;;;;;;25.06;45.42;99451.28;5111662;27;21799;-61
2022/05/17 09:11:26;;;;;;;5.25;2.70;;;;;;;25.11;45.30;99455.66;5117121;27;20047;-66
2022/05/17 09:14:31;;;;;;;8.13;3.05;;;;;;;25.09;45.46;99450.47;5110684;28;20141;-61
2022/05/17 09:17:10;;;;;;;7.75;2.47;;;;;;;25.08;45.70;99450.91;5113199;27;20052;-64
2022/05/17 09:19:36;;;;;;;6.65;2.78;;;;;;;25.13;45.40;99450.47;5122751;27;20518;-59
2022/05/17 09:22:03;;;;;;;4.95;2.85;;;;;;;25.09;45.42;99446.88;5111709;28;20077;-57
2022/05/17 09:24:35;;;;;;;4.75;2.60;;;;;;;25.14;45.43;99441.66;5109564;27;20113;-62
2022/05/17 09:27:10;;;;;;;7.68;2.55;;;;;;;25.18;45.46;99438.84;5116012;27;20039;-61
2022/05/17 09:29:47;;;;;;;6.07;2.22;;;;;;;25.16;45.23;99430.88;5105071;27;21023;-61
2022/05/17 09:32:24;;;;;;;3.25;2.05;;;;;;;25.16;45.39;99439.28;5106070;28;20048;-58
2022/05/17 09:34:59;;;;;;;4.80;2.53;;;;;;;25.15;45.82;99426.47;5107175;27;20089;-58
2022/05/17 09:37:36;;;;;;;4.13;2.10;;;;;;;25.21;45.49;99430.44;5107234;27;20047;-58
2022/05/17 09:40:06;;;;;;;4.57;2.20;;;;;;;25.19;45.73;99424.44;5113795;28;20052;-59
2022/05/17 09:42:43;;;;;;;3.88;1.92;;;;;;;25.24;45.65;99424.03;5114623;28;20044;-59
2022/05/17 09:45:15;;;;;;;4.25;1.95;;;;;;;25.21;45.79;99424.84;5111858;27;20073;-58
2022/05/17 09:47:53;;;;;;;3.70;2.25;;;;;;;25.21;45.78;99421.25;5110544;28;20624;-59
2022/05/17 09:53:14;;;;;;;6.72;2.35;;;;;;;25.29;45.69;99424.81;5107200;27;21106;-59
2022/05/17 09:55:43;;;;;;;6.10;2.28;;;;;;;25.35;45.53;99414.78;5112534;28;20036;-59
2022/05/17 09:58:28;;;;;;;7.32;2.30;;;;;;;25.29;45.74;99414.44;5109080;27;20191;-58
2022/05/17 10:00:54;;;;;;;6.45;2.60;;;;;;;25.28;45.57;99409.22;5119102;27;20868;-59
2022/05/17 10:03:32;;;;;;;4.95;2.17;;;;;;;25.32;45.58;99398.81;5112963;27;20044;-59
2022/05/17 10:06:00;;;;;;;3.30;2.00;;;;;;;25.36;45.32;99405.19;5105903;28;20113;-59
2022/05/17 10:08:35;;;;;;;4.97;2.47;;;;;;;25.41;45.64;99397.16;5117218;28;20043;-59
2022/05/17 10:11:10;;;;;;;5.60;1.90;;;;;;;25.49;45.46;99395.13;5115616;27;20496;-59
2022/05/17 10:14:10;;;;;;;5.05;2.10;;;;;;;25.52;45.08;99394.34;5117140;27;20047;-59
2022/05/17 10:16:51;;;;;;;3.47;1.83;;;;;;;25.45;45.28;99399.97;5062519;28;20437;-61
2022/05/17 10:19:43;;;;;;;4.47;1.70;;;;;;;25.45;45.11;99397.97;5108328;27;20035;-60
2022/05/17 10:22:27;;;;;;;3.60;1.70;;;;;;;25.50;45.01;99402.31;5117780;27;20051;-60
2022/05/17 10:25:04;;;;;;;2.70;1.60;;;;;;;25.53;45.19;99393.91;5122765;27;20074;-60
2022/05/17 10:27:48;;;;;;;3.42;1.75;;;;;;;25.60;44.72;99386.69;5117978;28;20083;-60
2022/05/17 10:30:23;;;;;;;5.28;2.70;;;;;;;25.62;44.89;99387.88;5116136;28;20562;-60
2022/05/17 10:33:01;;;;;;;3.92;1.98;;;;;;;25.64;44.73;99390.25;5104867;28;20048;-60
2022/05/17 10:35:44;;;;;;;3.65;2.42;;;;;;;25.65;44.53;99383.47;5112422;28;20074;-60
2022/05/17 10:38:15;;;;;;;10.65;2.75;;;;;;;25.63;44.52;99374.66;5114818;27;20050;-60
2022/05/17 10:40:46;;;;;;;5.32;1.98;;;;;;;25.63;44.55;99383.84;5115843;27;20043;-60
2022/05/17 10:43:26;;;;;;;5.72;1.83;;;;;;;25.65;44.57;99375.88;5116406;27;20528;-60
2022/05/17 10:46:04;;;;;;;4.57;1.85;;;;;;;25.62;44.83;99371.06;5112460;28;20507;-62
2022/05/17 10:48:35;;;;;;;5.35;2.25;;;;;;;25.57;44.94;99370.69;5107951;27;20039;-59
2022/05/17 10:51:26;;;;;;;3.30;1.88;;;;;;;25.57;44.84;99370.69;5111055;27;20043;-65
2022/05/17 10:54:01;;;;;;;5.60;1.70;;;;;;;25.59;44.99;99365.50;5103352;28;20050;-64
2022/05/17 10:56:55;;;;;;;5.57;1.85;;;;;;;25.66;45.10;99359.84;5120400;27;20046;-65
2022/05/17 10:59:58;;;;;;;2.35;1.45;;;;;;;25.66;44.80;99362.66;5117397;28;20076;-64
2022/05/17 11:03:06;;;;;;;6.65;1.80;;;;;;;25.64;45.06;99345.44;5106171;28;20044;-65
2022/05/17 11:05:53;;;;;;;5.93;2.28;;;;;;;25.64;44.94;99349.03;5032849;28;20573;-64
2022/05/17 11:08:52;;;;;;;3.28;1.55;;;;;;;25.60;44.93;99348.28;5037123;28;20503;-64
2022/05/17 11:11:26;;;;;;;3.63;1.70;;;;;;;25.62;44.91;99345.84;5048400;28;20057;-65
2022/05/17 11:14:01;;;;;;;2.80;1.70;;;;;;;25.62;45.33;99333.84;5062534;28;20044;-64
2022/05/17 11:16:39;;;;;;;2.53;1.70;;;;;;;25.61;45.10;99341.47;5065592;28;20060;-64
2022/05/17 11:19:18;;;;;;;3.70;1.60;;;;;;;25.63;45.12;99327.84;5032743;28;20053;-65
2022/05/17 11:22:00;;;;;;;3.88;1.90;;;;;;;25.62;45.14;99317.84;5035232;28;20045;-65
2022/05/17 11:24:42;;;;;;;;;;;;;;;25.69;45.21;99317.78;5041761;28;20049;-64
2022/05/17 11:27:38;;;;;;;3.40;1.60;;;;;;;25.68;45.23;99305.00;5046979;28;20019;-64
2022/05/17 11:30:08;;;;;;;2.85;1.60;;;;;;;25.66;45.28;99306.63;5024955;28;20135;-64
2022/05/17 11:32:37;;;;;;;4.70;2.00;;;;;;;25.62;45.75;99306.63;5035436;28;20049;-59
2022/05/17 11:35:24;;;;;;;2.83;1.40;;;;;;;25.67;45.88;99305.41;5041891;28;20969;-59
2022/05/17 11:37:51;;;;;;;2.88;1.60;;;;;;;25.70;45.80;99307.38;5036539;28;20143;-59
2022/05/17 11:40:47;;;;;;;2.40;1.58;;;;;;;25.73;45.92;99301.81;5091121;27;20161;-59
2022/05/17 11:46:03;;;;;;;3.50;1.80;;;;;;;25.50;45.41;99293.09;5102101;27;21786;-60
2022/05/17 11:48:51;;;;;;;2.97;1.77;;;;;;;25.31;46.52;99290.84;5114807;28;20097;-60
2022/05/17 11:51:17;;;;;;;4.00;1.80;;;;;;;25.29;47.63;99287.63;5110375;27;20067;-61
2022/05/17 11:53:48;;;;;;;3.35;1.90;;;;;;;25.28;48.53;99291.63;5110386;27;20079;-60
2022/05/17 11:56:32;;;;;;;3.63;1.90;;;;;;;25.26;47.92;99283.66;5106160;27;20047;-59
2022/05/17 11:59:12;;;;;;;3.17;1.90;;;;;;;25.14;46.46;99276.50;5113502;28;20167;-61
2022/05/17 12:01:37;;;;;;;5.43;1.90;;;;;;;25.08;46.78;99275.38;5100384;28;20444;-60